Airfield :
LOGIN :

Register | Disclaimer

   EN    FR    IT 

 










Legend :    VFR   Marginal VFR   IFR   Intensive IFR   Very Intensive IFR
Visi :
Ceiling :
>= 8 km
>= 3000ft
5 to 8 km
1000 to 3000 ft
1500m to 5 km
500 to 1000 ft
800 to 1500m
200 to 500 ft
< 800m
< 200 ft
Symbols :   Thunderstorms  Fog  Heavy snow  Heavy precipitations  Wind > 20 kt
SIGMETs :     Misc.  Thunderstorms  Icing  Turbulence  Mountain Waves  Volcanic Ashes






- Airport Elevation : 915 ft
- IATA code : LUG


LSZA - Lugano

CURRENT METAR :
  • 131050Z AUTO 20004KT 160V250 9999 NCD 27/19 Q1011

EXPIRED METARs :
  • 131020Z AUTO 19004KT 9999 NCD 25/18 Q1011
  • 130950Z 19003KT 150V230 9999 SCT040 25/18 Q1011
  • 130920Z VRB03KT 9999 SCT040 23/17 Q1011
  • 130850Z 19003KT 160V230 9999 SCT040 22/17 Q1011
  • 130820Z VRB02KT 9999 SCT040 23/17 Q1011
  • 130750Z VRB02KT 9999 SCT040 22/17 Q1011
  • 130720Z VRB02KT 9999 SCT040 20/17 Q1012
  • 130650Z VRB03KT 9999 FEW006 BKN040 20/17 Q1011
  • 130620Z 18004KT 070V220 9999 FEW006 BKN050 19/17 Q1011

TAF TAF LSZA
Valid from the 13 at 09:00 until the 13 at 18:00 UTC


130825Z 1309/1318 VRB02KT 9999 SCT050
PROB40
TEMPO 1313/1318 FEW050TCU
PROB30
TEMPO 1314/1318 TSRA FEW050CB
ATIS : +41 22 417 40 88



MET'MAP, your aeronautical weather chart ! - Copyright ORBIFLY December 2007 - Disclaimer

ORBIFLY MET'MAP TEAM :

Programming & Development : Alexandra Zaïnal
Original concept : Baudouin d'Aumeries
Technical & hardware support : Manuel Goepfert
Assistance : Marc-Olivier Méhu




SOURCES & CREDITS :

   NOAA